createdAt,value
2017-06-24T00:00:46.063Z,0
2017-06-24T00:01:58.291Z,0
2017-06-24T00:03:10.520Z,0
2017-06-24T00:04:23.083Z,0
2017-06-24T00:05:35.600Z,0
2017-06-24T00:06:48.125Z,0
2017-06-24T00:08:00.667Z,0
2017-06-24T00:09:13.169Z,0
2017-06-24T00:10:25.390Z,0
2017-06-24T00:11:37.951Z,0
2017-06-24T00:12:50.480Z,0
2017-06-24T00:14:02.679Z,0
2017-06-24T00:15:15.171Z,0
2017-06-24T00:16:27.395Z,0
2017-06-24T00:17:39.937Z,0
2017-06-24T00:18:52.188Z,0
2017-06-24T00:20:04.409Z,0
2017-06-24T00:21:16.926Z,0
2017-06-24T00:22:29.147Z,0
2017-06-24T00:23:41.685Z,0
2017-06-24T00:24:54.213Z,0
2017-06-24T00:26:06.763Z,0
2017-06-24T00:27:19.283Z,0
2017-06-24T00:28:31.505Z,0
2017-06-24T00:29:44.053Z,0
2017-06-24T00:30:56.614Z,0
2017-06-24T00:32:09.139Z,0
2017-06-24T00:33:21.352Z,0
2017-06-24T00:34:33.884Z,0
2017-06-24T00:35:46.427Z,0
2017-06-24T00:36:58.976Z,0
2017-06-24T00:38:11.219Z,0
2017-06-24T00:39:23.467Z,0
2017-06-24T00:40:35.711Z,0
2017-06-24T00:41:48.260Z,0
2017-06-24T00:43:00.802Z,0
2017-06-24T00:44:12.744Z,0
2017-06-24T00:45:24.974Z,0
2017-06-24T00:46:37.507Z,0
2017-06-24T00:47:49.740Z,0
2017-06-24T00:49:02.257Z,0
2017-06-24T00:50:14.798Z,0
2017-06-24T00:51:27.027Z,0
2017-06-24T00:52:39.272Z,0
2017-06-24T00:53:51.858Z,0
2017-06-24T00:55:04.383Z,0
2017-06-24T00:56:16.912Z,0
2017-06-24T00:57:29.445Z,0
2017-06-24T00:58:41.091Z,0
2017-06-24T00:59:53.015Z,0
2017-06-24T01:01:05.547Z,0
2017-06-24T01:02:18.065Z,0
2017-06-24T01:03:30.000Z,0
2017-06-24T01:04:42.496Z,0
2017-06-24T01:05:55.053Z,0
2017-06-24T01:07:07.288Z,0
2017-06-24T01:08:19.537Z,0
2017-06-24T01:09:32.081Z,0
2017-06-24T01:10:44.608Z,0
2017-06-24T01:11:57.150Z,0
2017-06-24T01:13:09.678Z,0
2017-06-24T01:14:22.196Z,0
2017-06-24T01:15:35.047Z,0
2017-06-24T01:16:47.588Z,0
2017-06-24T01:18:00.114Z,0
2017-06-24T01:19:12.358Z,0
2017-06-24T01:20:24.854Z,0
2017-06-24T01:21:37.393Z,0
2017-06-24T01:22:49.922Z,0
2017-06-24T01:24:02.167Z,0
2017-06-24T01:25:14.409Z,0
2017-06-24T01:26:26.959Z,0
2017-06-24T01:27:39.504Z,0
2017-06-24T01:28:51.724Z,0
2017-06-24T01:30:03.644Z,0
2017-06-24T01:31:16.186Z,0
2017-06-24T01:32:28.745Z,0
2017-06-24T01:33:41.256Z,0
2017-06-24T01:34:53.769Z,0
2017-06-24T01:36:06.276Z,0
2017-06-24T01:37:18.745Z,0
2017-06-24T01:38:31.292Z,0
2017-06-24T01:39:43.814Z,0
2017-06-24T01:40:56.349Z,0
2017-06-24T01:42:08.898Z,0
2017-06-24T01:43:21.448Z,0
2017-06-24T01:44:33.969Z,0
2017-06-24T01:45:46.490Z,0
2017-06-24T01:46:58.736Z,0
2017-06-24T01:48:10.978Z,0
2017-06-24T01:49:23.220Z,0
2017-06-24T01:50:35.803Z,0
2017-06-24T01:51:48.323Z,0
2017-06-24T01:53:00.848Z,0
2017-06-24T01:54:13.390Z,0
2017-06-24T01:55:25.911Z,0
2017-06-24T01:56:38.431Z,0
2017-06-24T01:57:50.992Z,0
2017-06-24T01:59:03.847Z,0
2017-06-24T02:00:16.062Z,0
2017-06-24T02:01:28.590Z,0
2017-06-24T02:02:40.807Z,0
2017-06-24T02:03:52.432Z,0
2017-06-24T02:05:04.670Z,0
2017-06-24T02:06:17.198Z,0
2017-06-24T02:07:29.724Z,0
2017-06-24T02:08:42.229Z,0
2017-06-24T02:09:54.736Z,0
2017-06-24T02:11:06.954Z,0
2017-06-24T02:12:19.150Z,0
2017-06-24T02:13:31.650Z,0
2017-06-24T02:14:44.167Z,0
2017-06-24T02:15:56.670Z,0
2017-06-24T02:17:08.883Z,0
2017-06-24T02:18:21.421Z,0
2017-06-24T02:19:33.975Z,0
2017-06-24T02:20:46.774Z,0
2017-06-24T02:21:59.299Z,0
2017-06-24T02:23:11.834Z,0
2017-06-24T02:24:24.058Z,0
2017-06-24T02:25:36.583Z,0
2017-06-24T02:26:49.126Z,0
2017-06-24T02:28:01.627Z,0
2017-06-24T02:29:13.874Z,0
2017-06-24T02:30:26.410Z,0
2017-06-24T02:31:38.906Z,0
2017-06-24T02:32:51.436Z,0
2017-06-24T02:34:03.936Z,0
2017-06-24T02:35:16.176Z,0
2017-06-24T02:36:28.722Z,0
2017-06-24T02:37:40.964Z,0
2017-06-24T02:38:53.185Z,0
2017-06-24T02:40:05.406Z,0
2017-06-24T02:41:17.636Z,0
2017-06-24T02:42:30.172Z,0
2017-06-24T02:43:42.699Z,0
2017-06-24T02:44:55.268Z,5
2017-06-24T02:46:07.831Z,5
2017-06-24T02:47:20.390Z,5
2017-06-24T02:48:32.927Z,5
2017-06-24T02:49:45.168Z,5
2017-06-24T02:50:57.697Z,5
2017-06-24T02:52:10.266Z,5
2017-06-24T02:53:22.157Z,5
2017-06-24T02:54:34.702Z,5
2017-06-24T02:55:47.229Z,5
2017-06-24T02:56:59.749Z,5
2017-06-24T02:58:12.295Z,5
2017-06-24T02:59:24.807Z,5
2017-06-24T03:00:37.357Z,5
2017-06-24T03:01:49.882Z,5
2017-06-24T03:03:02.429Z,5
2017-06-24T03:04:14.954Z,5
2017-06-24T03:05:27.495Z,10
2017-06-24T03:06:39.723Z,10
2017-06-24T03:07:52.265Z,5
2017-06-24T03:09:04.808Z,5
2017-06-24T03:10:17.349Z,5
2017-06-24T03:11:29.279Z,5
2017-06-24T03:12:41.798Z,10
2017-06-24T03:13:54.063Z,10
2017-06-24T03:15:06.592Z,10
2017-06-24T03:16:19.154Z,10
2017-06-24T03:17:31.679Z,10
2017-06-24T03:18:44.218Z,10
2017-06-24T03:19:56.420Z,10
2017-06-24T03:21:08.942Z,10
2017-06-24T03:22:21.483Z,15
2017-06-24T03:23:34.008Z,15
2017-06-24T03:24:46.231Z,15
2017-06-24T03:25:59.054Z,20
2017-06-24T03:27:11.596Z,20
2017-06-24T03:28:24.113Z,20
2017-06-24T03:29:36.662Z,20
2017-06-24T03:30:49.434Z,25
2017-06-24T03:32:01.960Z,25
2017-06-24T03:33:14.501Z,30
2017-06-24T03:34:27.067Z,35
2017-06-24T03:35:39.295Z,35
2017-06-24T03:36:51.816Z,35
2017-06-24T03:38:04.313Z,40
2017-06-24T03:39:16.534Z,40
2017-06-24T03:40:29.069Z,40
2017-06-24T03:41:41.615Z,45
2017-06-24T03:42:54.171Z,50
2017-06-24T03:44:06.689Z,50
2017-06-24T03:45:19.232Z,50
2017-06-24T03:46:31.788Z,50
2017-06-24T03:47:44.569Z,55
2017-06-24T03:48:56.797Z,55
2017-06-24T03:50:09.043Z,55
2017-06-24T03:51:21.581Z,60
2017-06-24T03:52:34.114Z,55
2017-06-24T03:53:46.360Z,60
2017-06-24T03:54:58.929Z,60
2017-06-24T03:56:11.470Z,60
2017-06-24T03:57:23.700Z,60
2017-06-24T03:58:36.518Z,65
2017-06-24T03:59:49.035Z,65
2017-06-24T04:01:01.582Z,65
2017-06-24T04:02:14.103Z,65
2017-06-24T04:03:26.598Z,60
2017-06-24T04:04:39.122Z,65
2017-06-24T04:05:51.673Z,65
2017-06-24T04:07:04.215Z,70
2017-06-24T04:08:16.482Z,80
2017-06-24T04:09:29.021Z,80
2017-06-24T04:10:41.549Z,75
2017-06-24T04:11:54.070Z,70
2017-06-24T04:13:06.591Z,65
2017-06-24T04:14:19.129Z,65
2017-06-24T04:15:31.660Z,65
2017-06-24T04:16:44.205Z,65
2017-06-24T04:17:56.744Z,70
2017-06-24T04:19:09.273Z,85
2017-06-24T04:20:22.116Z,85
2017-06-24T04:21:34.639Z,85
2017-06-24T04:22:46.886Z,85
2017-06-24T04:23:59.104Z,85
2017-06-24T04:25:11.304Z,95
2017-06-24T04:26:23.563Z,100
2017-06-24T04:27:36.109Z,100
2017-06-24T04:28:48.633Z,105
2017-06-24T04:30:00.832Z,110
2017-06-24T04:31:12.783Z,110
2017-06-24T04:32:25.317Z,110
2017-06-24T04:33:37.846Z,120
2017-06-24T04:34:50.067Z,130
2017-06-24T04:36:02.289Z,135
2017-06-24T04:37:14.509Z,130
2017-06-24T04:38:27.022Z,125
2017-06-24T04:39:39.555Z,115
2017-06-24T04:40:51.797Z,120
2017-06-24T04:42:04.297Z,120
2017-06-24T04:43:16.513Z,125
2017-06-24T04:44:29.031Z,125
2017-06-24T04:45:41.560Z,135
2017-06-24T04:46:54.393Z,145
2017-06-24T04:48:06.926Z,150
2017-06-24T04:49:19.447Z,150
2017-06-24T04:50:31.942Z,160
2017-06-24T04:51:44.160Z,170
2017-06-24T04:52:56.958Z,170
2017-06-24T04:54:09.479Z,165
2017-06-24T04:55:22.001Z,160
2017-06-24T04:56:34.536Z,160
2017-06-24T04:57:46.767Z,165
2017-06-24T04:58:59.013Z,170
2017-06-24T05:00:11.256Z,185
2017-06-24T05:01:23.505Z,190
2017-06-24T05:02:35.444Z,190
2017-06-24T05:03:48.244Z,195
2017-06-24T05:05:00.471Z,195
2017-06-24T05:06:12.702Z,185
2017-06-24T05:07:24.934Z,190
2017-06-24T05:08:37.455Z,180
2017-06-24T05:09:50.002Z,165
2017-06-24T05:11:02.544Z,165
2017-06-24T05:12:15.111Z,180
2017-06-24T05:13:27.628Z,190
2017-06-24T05:14:40.177Z,190
2017-06-24T05:15:52.424Z,185
2017-06-24T05:17:04.629Z,175
2017-06-24T05:18:16.870Z,175
2017-06-24T05:19:29.399Z,180
2017-06-24T05:20:41.940Z,165
2017-06-24T05:21:54.161Z,165
2017-06-24T05:23:06.698Z,170
2017-06-24T05:24:19.225Z,180
2017-06-24T05:25:31.763Z,175
2017-06-24T05:26:44.295Z,170
2017-06-24T05:27:56.840Z,180
2017-06-24T05:29:09.383Z,185
2017-06-24T05:30:21.896Z,180
2017-06-24T05:31:34.425Z,170
2017-06-24T05:32:46.964Z,180
2017-06-24T05:33:59.513Z,180
2017-06-24T05:35:11.758Z,165
2017-06-24T05:36:23.975Z,155
2017-06-24T05:37:36.201Z,175
2017-06-24T05:38:48.455Z,180
2017-06-24T05:40:00.422Z,220
2017-06-24T05:41:12.648Z,240
2017-06-24T05:42:25.197Z,265
2017-06-24T05:43:37.728Z,315
2017-06-24T05:44:50.255Z,360
2017-06-24T05:46:02.794Z,355
2017-06-24T05:47:15.573Z,300
2017-06-24T05:48:27.245Z,250
2017-06-24T05:49:39.763Z,240
2017-06-24T05:50:52.290Z,300
2017-06-24T05:52:04.257Z,335
2017-06-24T05:53:16.801Z,365
2017-06-24T05:54:29.346Z,430
2017-06-24T05:55:41.589Z,495
2017-06-24T05:56:53.817Z,500
2017-06-24T05:58:06.656Z,515
2017-06-24T05:59:18.561Z,530
2017-06-24T06:00:31.106Z,470
2017-06-24T06:01:43.348Z,415
2017-06-24T06:02:55.564Z,380
2017-06-24T06:04:08.090Z,370
2017-06-24T06:05:20.316Z,360
2017-06-24T06:06:32.231Z,320
2017-06-24T06:07:44.732Z,325
2017-06-24T06:08:57.273Z,345
2017-06-24T06:10:09.516Z,345
2017-06-24T06:11:21.443Z,340
2017-06-24T06:12:33.990Z,310
2017-06-24T06:13:46.186Z,290
2017-06-24T06:14:58.728Z,315
2017-06-24T06:16:11.273Z,405
2017-06-24T06:17:23.523Z,480
2017-06-24T06:18:35.770Z,425
2017-06-24T06:19:48.316Z,360
2017-06-24T06:21:00.886Z,350
2017-06-24T06:22:13.145Z,345
2017-06-24T06:23:25.392Z,360
2017-06-24T06:24:37.916Z,355
2017-06-24T06:25:50.462Z,345
2017-06-24T06:27:02.717Z,360
2017-06-24T06:28:15.287Z,320
2017-06-24T06:29:27.854Z,310
2017-06-24T06:30:39.800Z,330
2017-06-24T06:31:52.338Z,370
2017-06-24T06:33:04.571Z,455
2017-06-24T06:34:17.112Z,530
2017-06-24T06:35:29.334Z,535
2017-06-24T06:36:41.859Z,520
2017-06-24T06:37:54.403Z,495
2017-06-24T06:39:06.925Z,400
2017-06-24T06:40:19.426Z,300
2017-06-24T06:41:31.616Z,255
2017-06-24T06:42:44.159Z,290
2017-06-24T06:43:56.717Z,350
2017-06-24T06:45:09.229Z,440
2017-06-24T06:46:21.750Z,475
2017-06-24T06:47:34.286Z,450
2017-06-24T06:48:46.822Z,420
2017-06-24T06:49:59.085Z,405
2017-06-24T06:51:11.601Z,350
2017-06-24T06:52:24.154Z,310
2017-06-24T06:53:36.689Z,300
2017-06-24T06:54:48.622Z,315
2017-06-24T06:56:00.560Z,345
2017-06-24T06:57:13.085Z,370
2017-06-24T06:58:25.611Z,410
2017-06-24T06:59:38.130Z,475
2017-06-24T07:00:50.345Z,500
2017-06-24T07:02:02.571Z,490
2017-06-24T07:03:15.344Z,450
2017-06-24T07:04:27.894Z,450
2017-06-24T07:05:40.437Z,475
2017-06-24T07:06:52.952Z,465
2017-06-24T07:08:05.526Z,430
2017-06-24T07:09:17.744Z,475
2017-06-24T07:10:30.270Z,585
2017-06-24T07:11:42.528Z,605
2017-06-24T07:12:55.061Z,510
2017-06-24T07:14:07.280Z,435
2017-06-24T07:15:19.503Z,425
2017-06-24T07:16:31.763Z,430
2017-06-24T07:17:43.994Z,420
2017-06-24T07:18:55.889Z,430
2017-06-24T07:20:08.134Z,435
2017-06-24T07:21:20.671Z,460
2017-06-24T07:22:32.927Z,475
2017-06-24T07:23:44.824Z,475
2017-06-24T07:24:57.058Z,505
2017-06-24T07:26:08.992Z,490
2017-06-24T07:27:21.533Z,475
2017-06-24T07:28:33.755Z,525
2017-06-24T07:29:46.275Z,490
2017-06-24T07:30:58.500Z,395
2017-06-24T07:32:10.720Z,365
2017-06-24T07:33:22.963Z,355
2017-06-24T07:34:35.487Z,335
2017-06-24T07:35:47.710Z,320
2017-06-24T07:36:59.953Z,330
2017-06-24T07:38:12.497Z,325
2017-06-24T07:39:24.994Z,290
2017-06-24T07:40:36.635Z,280
2017-06-24T07:41:49.138Z,280
2017-06-24T07:43:01.658Z,300
2017-06-24T07:44:14.193Z,330
2017-06-24T07:45:26.439Z,345
2017-06-24T07:46:39.288Z,320
2017-06-24T07:47:51.518Z,285
2017-06-24T07:49:03.729Z,280
2017-06-24T07:50:16.256Z,315
2017-06-24T07:51:28.454Z,365
2017-06-24T07:52:40.998Z,360
2017-06-24T07:53:53.548Z,335
2017-06-24T07:55:05.768Z,325
2017-06-24T07:56:18.330Z,330
2017-06-24T07:57:30.532Z,335
2017-06-24T07:58:43.052Z,370
2017-06-24T07:59:55.573Z,430
2017-06-24T08:01:07.818Z,490
2017-06-24T08:02:19.739Z,480
2017-06-24T08:03:31.678Z,445
2017-06-24T08:04:43.927Z,430
2017-06-24T08:05:56.452Z,425
2017-06-24T08:07:08.393Z,430
2017-06-24T08:08:20.622Z,410
2017-06-24T08:09:32.871Z,375
2017-06-24T08:10:45.386Z,365
2017-06-24T08:11:57.908Z,400
2017-06-24T08:13:10.432Z,360
2017-06-24T08:14:22.953Z,325
2017-06-24T08:15:35.198Z,330
2017-06-24T08:16:47.741Z,380
2017-06-24T08:17:59.967Z,405
2017-06-24T08:19:12.434Z,435
2017-06-24T08:20:24.997Z,460
2017-06-24T08:21:37.546Z,460
2017-06-24T08:22:50.092Z,470
2017-06-24T08:24:02.594Z,475
2017-06-24T08:25:14.841Z,460
2017-06-24T08:26:27.129Z,445
2017-06-24T08:27:39.682Z,450
2017-06-24T08:28:51.278Z,465
2017-06-24T08:30:03.496Z,465
2017-06-24T08:31:15.762Z,450
2017-06-24T08:32:28.287Z,430
2017-06-24T08:33:40.811Z,430
2017-06-24T08:34:53.332Z,510
2017-06-24T08:36:05.868Z,625
2017-06-24T08:37:18.412Z,700
2017-06-24T08:38:30.643Z,660
2017-06-24T08:39:43.163Z,615
2017-06-24T08:40:55.964Z,580
2017-06-24T08:42:08.510Z,575
2017-06-24T08:43:20.754Z,610
2017-06-24T08:44:33.271Z,590
2017-06-24T08:45:45.797Z,585
2017-06-24T08:46:58.341Z,610
2017-06-24T08:48:10.562Z,665
2017-06-24T08:49:23.081Z,685
2017-06-24T08:50:35.604Z,660
2017-06-24T08:51:47.542Z,630
2017-06-24T08:53:00.082Z,635
2017-06-24T08:54:12.359Z,690
2017-06-24T08:55:24.606Z,735
2017-06-24T08:56:37.174Z,715
2017-06-24T08:57:49.705Z,710
2017-06-24T08:59:02.277Z,735
2017-06-24T09:00:14.801Z,755
2017-06-24T09:01:27.364Z,695
2017-06-24T09:02:40.193Z,645
2017-06-24T09:03:52.110Z,625
2017-06-24T09:05:04.681Z,545
2017-06-24T09:06:17.226Z,490
2017-06-24T09:07:29.462Z,505
2017-06-24T09:08:42.014Z,520
2017-06-24T09:09:54.536Z,555
2017-06-24T09:11:07.078Z,560
2017-06-24T09:12:19.645Z,565
2017-06-24T09:13:32.192Z,595
2017-06-24T09:14:44.448Z,625
2017-06-24T09:15:56.718Z,640
2017-06-24T09:17:09.254Z,630
2017-06-24T09:18:21.802Z,660
2017-06-24T09:19:34.348Z,645
2017-06-24T09:20:46.920Z,680
2017-06-24T09:21:59.446Z,805
2017-06-24T09:23:11.997Z,870
2017-06-24T09:24:24.536Z,715
2017-06-24T09:25:36.762Z,610
2017-06-24T09:26:49.321Z,520
2017-06-24T09:28:01.550Z,480
2017-06-24T09:29:14.077Z,510
2017-06-24T09:30:26.320Z,560
2017-06-24T09:31:38.840Z,585
2017-06-24T09:32:51.387Z,670
2017-06-24T09:34:03.933Z,785
2017-06-24T09:35:16.505Z,775
2017-06-24T09:36:28.722Z,665
2017-06-24T09:37:40.942Z,620
2017-06-24T09:38:53.155Z,665
2017-06-24T09:40:05.691Z,710
2017-06-24T09:41:18.229Z,705
2017-06-24T09:42:30.775Z,795
2017-06-24T09:43:43.275Z,775
2017-06-24T09:44:55.809Z,625
2017-06-24T09:46:08.359Z,495
2017-06-24T09:47:20.905Z,455
2017-06-24T09:48:33.447Z,445
2017-06-24T09:49:45.706Z,455
2017-06-24T09:50:58.246Z,485
2017-06-24T09:52:10.742Z,500
2017-06-24T09:53:23.264Z,585
2017-06-24T09:54:35.802Z,650
2017-06-24T09:55:48.026Z,635
2017-06-24T09:57:00.805Z,620
2017-06-24T09:58:13.065Z,610
2017-06-24T09:59:25.567Z,580
2017-06-24T10:00:38.093Z,540
2017-06-24T10:01:50.352Z,515
2017-06-24T10:03:02.935Z,530
2017-06-24T10:04:15.186Z,540
2017-06-24T10:05:27.715Z,535
2017-06-24T10:06:40.248Z,535
2017-06-24T10:07:52.807Z,555
2017-06-24T10:09:05.339Z,575
2017-06-24T10:10:17.835Z,570
2017-06-24T10:11:30.369Z,530
2017-06-24T10:12:42.916Z,525
2017-06-24T10:13:55.165Z,540
2017-06-24T10:15:07.690Z,550
2017-06-24T10:16:20.232Z,555
2017-06-24T10:17:32.774Z,575
2017-06-24T10:18:45.571Z,635
2017-06-24T10:19:58.104Z,670
2017-06-24T10:21:10.640Z,610
2017-06-24T10:22:22.568Z,570
2017-06-24T10:23:34.814Z,570
2017-06-24T10:24:47.361Z,630
2017-06-24T10:25:59.906Z,665
2017-06-24T10:27:12.123Z,710
2017-06-24T10:28:24.339Z,805
2017-06-24T10:29:36.568Z,815
2017-06-24T10:30:48.791Z,715
2017-06-24T10:32:01.349Z,715
2017-06-24T10:33:13.878Z,690
2017-06-24T10:34:26.429Z,645
2017-06-24T10:35:38.987Z,695
2017-06-24T10:36:51.220Z,690
2017-06-24T10:38:03.766Z,625
2017-06-24T10:39:16.308Z,610
2017-06-24T10:40:29.157Z,605
2017-06-24T10:41:41.421Z,655
2017-06-24T10:42:53.963Z,670
2017-06-24T10:44:06.209Z,620
2017-06-24T10:45:18.766Z,575
2017-06-24T10:46:31.311Z,500
2017-06-24T10:47:43.857Z,440
2017-06-24T10:48:56.404Z,355
2017-06-24T10:50:08.647Z,315
2017-06-24T10:51:21.220Z,335
2017-06-24T10:52:33.767Z,365
2017-06-24T10:53:45.982Z,410
2017-06-24T10:54:58.204Z,465
2017-06-24T10:56:10.454Z,460
2017-06-24T10:57:22.714Z,415
2017-06-24T10:58:34.646Z,400
2017-06-24T10:59:47.194Z,355
2017-06-24T11:00:59.737Z,320
2017-06-24T11:02:12.508Z,265
2017-06-24T11:03:25.057Z,235
2017-06-24T11:04:37.296Z,255
2017-06-24T11:05:49.535Z,265
2017-06-24T11:07:02.081Z,235
2017-06-24T11:08:14.659Z,220
2017-06-24T11:09:27.205Z,225
2017-06-24T11:10:39.705Z,215
2017-06-24T11:11:51.954Z,180
2017-06-24T11:13:04.471Z,200
2017-06-24T11:14:17.031Z,355
2017-06-24T11:15:29.264Z,515
2017-06-24T11:16:41.499Z,565
2017-06-24T11:17:54.051Z,580
2017-06-24T11:19:06.299Z,615
2017-06-24T11:20:18.811Z,690
2017-06-24T11:21:31.365Z,770
2017-06-24T11:22:43.291Z,810
2017-06-24T11:23:55.773Z,695
2017-06-24T11:25:08.002Z,505
2017-06-24T11:26:20.566Z,370
2017-06-24T11:27:33.123Z,330
2017-06-24T11:28:45.386Z,355
2017-06-24T11:29:57.911Z,335
2017-06-24T11:31:10.140Z,280
2017-06-24T11:32:22.681Z,280
2017-06-24T11:33:35.227Z,300
2017-06-24T11:34:47.473Z,285
2017-06-24T11:35:59.719Z,245
2017-06-24T11:37:12.279Z,245
2017-06-24T11:38:24.811Z,255
2017-06-24T11:39:37.346Z,290
2017-06-24T11:40:49.632Z,390
2017-06-24T11:42:00.973Z,560
2017-06-24T11:43:13.495Z,785
2017-06-24T11:44:26.041Z,785
2017-06-24T11:45:38.586Z,645
2017-06-24T11:46:50.830Z,580
2017-06-24T11:48:02.799Z,550
2017-06-24T11:49:15.324Z,590
2017-06-24T11:50:27.895Z,680
2017-06-24T11:51:40.408Z,680
2017-06-24T11:52:52.654Z,650
2017-06-24T11:54:04.884Z,635
2017-06-24T11:55:17.143Z,700
2017-06-24T11:56:29.676Z,810
2017-06-24T11:57:42.197Z,825
2017-06-24T11:58:54.167Z,815
2017-06-24T12:00:06.416Z,790
2017-06-24T12:01:18.659Z,750
2017-06-24T12:02:31.201Z,655
2017-06-24T12:03:43.696Z,535
2017-06-24T12:04:55.910Z,475
2017-06-24T12:06:08.468Z,465
2017-06-24T12:07:21.038Z,465
2017-06-24T12:08:33.583Z,480
2017-06-24T12:09:46.131Z,595
2017-06-24T12:10:58.371Z,665
2017-06-24T12:12:10.620Z,700
2017-06-24T12:13:23.156Z,640
2017-06-24T12:14:35.706Z,675
2017-06-24T12:15:48.256Z,800
2017-06-24T12:17:00.497Z,850
2017-06-24T12:18:13.325Z,890
2017-06-24T12:19:25.869Z,920
2017-06-24T12:20:37.770Z,1040
2017-06-24T12:21:50.311Z,1080
2017-06-24T12:23:02.856Z,1095
2017-06-24T12:24:15.353Z,1250
2017-06-24T12:25:27.879Z,1235
2017-06-24T12:26:40.119Z,1135
2017-06-24T12:27:52.639Z,1155
2017-06-24T12:29:04.300Z,1155
2017-06-24T12:30:16.861Z,1165
2017-06-24T12:31:29.128Z,1245
2017-06-24T12:32:41.666Z,1075
2017-06-24T12:33:53.637Z,1000
2017-06-24T12:35:05.859Z,1050
2017-06-24T12:36:18.390Z,1140
2017-06-24T12:37:30.934Z,1225
2017-06-24T12:38:43.153Z,1400
2017-06-24T12:39:55.716Z,1405
2017-06-24T12:41:08.266Z,1740
2017-06-24T12:42:20.816Z,2065
2017-06-24T12:43:33.357Z,2580
2017-06-24T12:44:45.908Z,3600
2017-06-24T12:45:58.132Z,2895
2017-06-24T12:47:10.684Z,4340
2017-06-24T12:48:23.200Z,4020
2017-06-24T12:49:35.416Z,1920
2017-06-24T12:50:47.613Z,1905
2017-06-24T12:52:00.179Z,2235
2017-06-24T12:53:12.721Z,2030
2017-06-24T12:54:24.978Z,1970
2017-06-24T12:55:37.542Z,1395
2017-06-24T12:56:49.797Z,1215
2017-06-24T12:58:02.088Z,1150
2017-06-24T12:59:14.337Z,1075
2017-06-24T13:00:26.881Z,1130
2017-06-24T13:01:39.656Z,1250
2017-06-24T13:02:51.925Z,1220
2017-06-24T13:04:04.468Z,1660
2017-06-24T13:05:17.034Z,1820
2017-06-24T13:06:29.317Z,1330
2017-06-24T13:07:41.855Z,1200
2017-06-24T13:08:54.125Z,1350
2017-06-24T13:10:06.669Z,1355
2017-06-24T13:11:19.246Z,1435
2017-06-24T13:12:31.789Z,1300
2017-06-24T13:13:44.330Z,995
2017-06-24T13:14:56.877Z,1250
2017-06-24T13:16:09.131Z,1190
2017-06-24T13:17:21.365Z,1235
2017-06-24T13:18:33.323Z,1185
2017-06-24T13:19:44.984Z,1140
2017-06-24T13:20:57.215Z,1215
2017-06-24T13:22:09.731Z,1345
2017-06-24T13:23:22.278Z,1115
2017-06-24T13:24:34.827Z,1040
2017-06-24T13:25:47.398Z,980
2017-06-24T13:26:59.970Z,1260
2017-06-24T13:28:12.516Z,1285
2017-06-24T13:29:25.078Z,1170
2017-06-24T13:30:37.602Z,970
2017-06-24T13:31:50.126Z,990
2017-06-24T13:33:02.670Z,1030
2017-06-24T13:34:14.940Z,960
2017-06-24T13:35:27.206Z,935
2017-06-24T13:36:39.450Z,950
2017-06-24T13:37:51.399Z,940
2017-06-24T13:39:03.632Z,905
2017-06-24T13:40:15.895Z,885
2017-06-24T13:41:28.446Z,870
2017-06-24T13:42:40.962Z,810
2017-06-24T13:43:53.187Z,830
2017-06-24T13:45:06.054Z,845
2017-06-24T13:46:18.029Z,1445
2017-06-24T13:47:30.595Z,1080
2017-06-24T13:48:42.868Z,975
2017-06-24T13:49:55.387Z,1035
2017-06-24T13:51:07.912Z,1265
2017-06-24T13:52:20.458Z,1430
2017-06-24T13:53:32.996Z,1130
2017-06-24T13:54:45.253Z,1070
2017-06-24T13:55:57.209Z,1170
2017-06-24T13:57:09.754Z,1130
2017-06-24T13:58:22.001Z,985
2017-06-24T13:59:34.547Z,1070
2017-06-24T14:00:46.778Z,1145
2017-06-24T14:01:59.042Z,1100
2017-06-24T14:03:11.593Z,1150
2017-06-24T14:04:23.863Z,1415
2017-06-24T14:05:36.110Z,1235
2017-06-24T14:06:48.658Z,1190
2017-06-24T14:08:01.219Z,1160
2017-06-24T14:09:13.465Z,1205
2017-06-24T14:10:25.996Z,1700
2017-06-24T14:11:38.592Z,1185
2017-06-24T14:12:51.136Z,895
2017-06-24T14:14:03.699Z,715
2017-06-24T14:15:16.302Z,625
2017-06-24T14:16:28.865Z,730
2017-06-24T14:17:41.416Z,810
2017-06-24T14:18:53.670Z,735
2017-06-24T14:20:05.885Z,715
2017-06-24T14:21:18.409Z,695
2017-06-24T14:22:30.355Z,630
2017-06-24T14:23:42.906Z,700
2017-06-24T14:24:55.172Z,730
2017-06-24T14:26:07.718Z,810
2017-06-24T14:27:19.961Z,770
2017-06-24T14:28:32.249Z,705
2017-06-24T14:29:44.782Z,690
2017-06-24T14:30:57.049Z,580
2017-06-24T14:32:09.620Z,495
2017-06-24T14:33:22.144Z,455
2017-06-24T14:34:34.664Z,425
2017-06-24T14:35:46.882Z,410
2017-06-24T14:36:58.806Z,400
2017-06-24T14:38:11.354Z,375
2017-06-24T14:39:24.145Z,405
2017-06-24T14:40:36.393Z,445
2017-06-24T14:41:48.913Z,440
2017-06-24T14:43:01.453Z,430
2017-06-24T14:44:14.005Z,425
2017-06-24T14:45:26.518Z,420
2017-06-24T14:46:38.748Z,455
2017-06-24T14:47:51.010Z,485
2017-06-24T14:49:03.285Z,505
2017-06-24T14:50:15.811Z,525
2017-06-24T14:51:28.055Z,540
2017-06-24T14:52:40.583Z,555
2017-06-24T14:53:53.142Z,560
2017-06-24T14:55:05.687Z,540
2017-06-24T14:56:18.213Z,580
2017-06-24T14:57:30.738Z,595
2017-06-24T14:58:42.984Z,610
2017-06-24T14:59:55.547Z,620
2017-06-24T15:01:08.374Z,575
2017-06-24T15:02:20.596Z,510
2017-06-24T15:03:33.164Z,460
2017-06-24T15:04:45.387Z,420
2017-06-24T15:05:57.633Z,425
2017-06-24T15:07:10.177Z,435
2017-06-24T15:08:22.718Z,415
2017-06-24T15:09:34.925Z,390
2017-06-24T15:10:47.464Z,375
2017-06-24T15:11:59.705Z,380
2017-06-24T15:13:12.231Z,395
2017-06-24T15:14:24.769Z,430
2017-06-24T15:15:37.000Z,580
2017-06-24T15:16:49.235Z,650
2017-06-24T15:18:01.468Z,640
2017-06-24T15:19:13.714Z,640
2017-06-24T15:20:25.635Z,630
2017-06-24T15:21:38.176Z,655
2017-06-24T15:22:50.927Z,730
2017-06-24T15:24:03.473Z,685
2017-06-24T15:25:16.007Z,555
2017-06-24T15:26:28.253Z,520
2017-06-24T15:27:40.786Z,495
2017-06-24T15:28:53.324Z,455
2017-06-24T15:30:05.541Z,425
2017-06-24T15:31:18.072Z,410
2017-06-24T15:32:30.615Z,420
2017-06-24T15:33:43.140Z,445
2017-06-24T15:34:55.686Z,490
2017-06-24T15:36:08.253Z,465
2017-06-24T15:37:20.502Z,390
2017-06-24T15:38:33.046Z,420
2017-06-24T15:39:45.265Z,510
2017-06-24T15:40:57.815Z,530
2017-06-24T15:42:10.033Z,535
2017-06-24T15:43:22.548Z,485
2017-06-24T15:44:34.752Z,425
2017-06-24T15:45:47.313Z,495
2017-06-24T15:46:59.541Z,585
2017-06-24T15:48:12.087Z,670
2017-06-24T15:49:24.654Z,620
2017-06-24T15:50:37.188Z,585
2017-06-24T15:51:49.725Z,610
2017-06-24T15:53:01.948Z,570
2017-06-24T15:54:14.193Z,525
2017-06-24T15:55:26.730Z,400
2017-06-24T15:56:39.279Z,355
2017-06-24T15:57:51.829Z,390
2017-06-24T15:59:04.050Z,405
2017-06-24T16:00:16.624Z,430
2017-06-24T16:01:28.868Z,455
2017-06-24T16:02:41.416Z,445
2017-06-24T16:03:53.964Z,570
2017-06-24T16:05:06.505Z,530
2017-06-24T16:06:18.730Z,485
2017-06-24T16:07:31.296Z,500
2017-06-24T16:08:43.822Z,530
2017-06-24T16:09:56.083Z,525
2017-06-24T16:11:08.309Z,495
2017-06-24T16:12:20.831Z,545
2017-06-24T16:13:33.347Z,470
2017-06-24T16:14:45.897Z,350
2017-06-24T16:15:58.118Z,420
2017-06-24T16:17:10.339Z,520
2017-06-24T16:18:22.889Z,405
2017-06-24T16:19:35.423Z,375
2017-06-24T16:20:47.673Z,400
2017-06-24T16:22:00.447Z,475
2017-06-24T16:23:12.669Z,540
2017-06-24T16:24:25.192Z,600
2017-06-24T16:25:37.740Z,485
2017-06-24T16:26:49.981Z,415
2017-06-24T16:28:02.227Z,350
2017-06-24T16:29:14.776Z,345
2017-06-24T16:30:27.023Z,370
2017-06-24T16:31:39.267Z,315
2017-06-24T16:32:51.540Z,240
2017-06-24T16:34:04.093Z,200
2017-06-24T16:35:16.632Z,190
2017-06-24T16:36:29.152Z,205
2017-06-24T16:37:41.670Z,235
2017-06-24T16:38:54.510Z,295
2017-06-24T16:40:06.756Z,330
2017-06-24T16:41:19.307Z,360
2017-06-24T16:42:31.846Z,405
2017-06-24T16:43:44.650Z,425
2017-06-24T16:44:57.174Z,410
2017-06-24T16:46:09.744Z,405
2017-06-24T16:47:22.266Z,350
2017-06-24T16:48:34.492Z,295
2017-06-24T16:49:47.007Z,230